Time;durP1;ratioP1;P1;durP2;ratioP2;P2;SDS_P1;SDS_P2;PMS_P1;PMS_P2;Temp;Humidity;BMP_temperature;BMP_pressure;BME280_temperature;BME280_humidity;BME280_pressure;Samples;Min_cycle;Max_cycle;Signal;HPM_P1;HPM_P2
2020/12/04 00:00:36;;;;;;;30.90;17.77;;;;;;;4.82;68.18;98876.69;4201346;34;32819;-91
2020/12/04 00:03:09;;;;;;;36.45;18.60;;;;;;;4.71;68.65;98880.53;4216025;34;33872;-92
2020/12/04 00:05:41;;;;;;;32.30;18.62;;;;;;;4.55;68.65;98888.59;4216337;34;33347;-91
2020/12/04 00:08:16;;;;;;;29.05;18.48;;;;;;;4.98;67.42;98877.62;4214694;34;34229;-96
2020/12/04 00:10:53;;;;;;;31.12;19.12;;;;;;;5.24;66.66;98877.34;4338039;28;32875;-96
2020/12/04 00:13:26;;;;;;;31.27;18.70;;;;;;;4.84;67.93;98879.19;4206084;34;34663;-95
2020/12/04 00:19:23;;;;;;;;;;;;;;;5.03;67.59;98849.31;4195376;34;32176;-96
2020/12/04 00:21:57;;;;;;;30.75;16.15;;;;;;;4.75;68.01;98840.88;4220278;34;33879;-96
2020/12/04 00:27:32;;;;;;;30.25;17.02;;;;;;;4.69;68.20;98869.16;4193511;34;33631;-92
2020/12/04 00:30:05;;;;;;;31.12;17.40;;;;;;;4.93;67.61;98859.41;4183953;34;33915;-89
2020/12/04 00:32:38;;;;;;;28.35;17.02;;;;;;;4.77;68.22;98855.78;4207002;34;34692;-93
2020/12/04 00:35:10;;;;;;;27.95;17.52;;;;;;;4.51;69.10;98865.87;4196010;34;34278;-94
2020/12/04 00:37:59;;;;;;;30.60;18.62;;;;;;;4.61;68.10;98855.81;4179504;34;33818;-92
2020/12/04 00:40:33;;;;;;;28.15;17.73;;;;;;;4.14;69.73;98860.03;4195605;34;32387;-92
2020/12/04 00:43:39;;;;;;;28.45;18.85;;;;;;;4.34;69.03;98859.69;4193087;33;20158;-91
2020/12/04 00:46:13;;;;;;;30.98;17.23;;;;;;;4.70;67.53;98854.78;4169816;34;34313;-92
2020/12/04 00:49:41;;;;;;;31.00;18.40;;;;;;;4.71;67.74;98842.22;4185472;34;35269;-93
2020/12/04 00:52:13;;;;;;;28.15;17.20;;;;;;;4.01;69.88;98855.19;4180736;34;33138;-93
2020/12/04 00:54:48;;;;;;;30.35;18.60;;;;;;;4.15;69.54;98860.88;4179823;34;34221;-96
2020/12/04 00:57:44;;;;;;;28.33;18.65;;;;;;;4.15;69.12;98845.66;4153399;34;32370;-93
2020/12/04 01:00:18;;;;;;;31.35;17.52;;;;;;;4.37;68.40;98838.78;4152028;34;34176;-96
2020/12/04 01:02:51;;;;;;;32.38;18.77;;;;;;;4.33;68.46;98850.84;4154825;34;33451;-90
2020/12/04 01:05:24;;;;;;;33.05;18.58;;;;;;;4.16;68.93;98835.78;4192660;34;33567;-93
2020/12/04 01:07:57;;;;;;;33.35;19.95;;;;;;;3.93;69.93;98836.47;4195114;34;33934;-96
2020/12/04 01:10:31;;;;;;;38.95;20.05;;;;;;;3.95;69.72;98837.16;4180900;34;33215;-91
2020/12/04 01:16:13;;;;;;;31.50;18.40;;;;;;;3.85;69.96;98833.81;4290282;28;34410;31
2020/12/04 01:18:45;;;;;;;34.22;19.00;;;;;;;3.93;69.81;98825.78;4364550;28;33404;-96
2020/12/04 01:21:22;;;;;;;35.45;20.12;;;;;;;3.82;69.80;98834.13;4294379;28;34439;-94
2020/12/04 01:24:28;;;;;;;28.17;17.83;;;;;;;4.07;68.92;98830.47;4365257;28;34353;-95
2020/12/04 01:27:29;;;;;;;32.47;18.15;;;;;;;3.98;69.26;98828.78;4274564;28;35849;-88
2020/12/04 01:30:27;;;;;;;34.33;20.15;;;;;;;3.96;69.84;98836.13;4194011;33;30200;-96
2020/12/04 01:33:00;;;;;;;33.47;18.98;;;;;;;3.20;72.44;98827.31;4253460;28;33463;-93
2020/12/04 01:35:44;;;;;;;33.95;18.15;;;;;;;3.94;69.69;98816.75;4230980;28;33972;-93
2020/12/04 01:38:17;;;;;;;34.20;19.25;;;;;;;3.60;70.47;98824.91;4246398;28;34889;-91
2020/12/04 01:41:15;;;;;;;34.38;19.65;;;;;;;3.69;70.45;98811.37;4236424;28;32877;-93
2020/12/04 01:44:05;;;;;;;37.47;19.40;;;;;;;3.70;70.43;98805.06;4402706;28;33573;-94
2020/12/04 01:46:38;;;;;;;31.17;17.60;;;;;;;3.92;69.52;98794.69;4263201;28;31410;-92
2020/12/04 01:49:11;;;;;;;32.45;18.23;;;;;;;3.53;70.71;98798.88;4208247;34;33020;-90
2020/12/04 01:51:43;;;;;;;30.80;18.45;;;;;;;3.37;71.29;98798.84;4236075;28;33635;-88
2020/12/04 01:54:15;;;;;;;33.85;17.95;;;;;;;3.91;69.10;98787.69;4207999;33;33761;-89
2020/12/04 01:56:48;;;;;;;36.03;19.17;;;;;;;3.67;69.96;98799.22;4183481;34;34082;-91
2020/12/04 01:59:21;;;;;;;30.60;19.08;;;;;;;3.60;70.38;98793.69;4187464;34;33343;-96
2020/12/04 02:02:19;;;;;;;32.17;17.10;;;;;;;3.83;69.61;98774.31;4209975;33;32846;-90
2020/12/04 02:04:52;;;;;;;29.58;17.85;;;;;;;4.14;68.40;98762.91;4222129;33;33613;-91
2020/12/04 02:08:12;;;;;;;36.20;19.52;;;;;;;3.80;69.68;98761.28;4233035;28;33361;-96
2020/12/04 02:10:50;;;;;;;33.90;19.25;;;;;;;3.67;70.26;98757.28;4196973;28;33048;-92
2020/12/04 02:13:25;;;;;;;33.03;17.97;;;;;;;3.80;69.97;98758.59;4449673;28;34391;-94
2020/12/04 02:15:58;;;;;;;47.00;19.90;;;;;;;3.65;70.17;98759.28;4197809;34;33854;-89
2020/12/04 02:18:39;;;;;;;36.33;18.77;;;;;;;3.09;72.55;98760.88;4273307;28;34844;-91
2020/12/04 02:21:29;;;;;;;33.72;17.17;;;;;;;3.82;70.15;98754.78;4243204;28;34091;-88
2020/12/04 02:24:38;;;;;;;31.02;17.90;;;;;;;3.54;71.42;98748.91;4282043;28;31974;31
2020/12/04 02:27:19;;;;;;;35.40;17.75;;;;;;;4.00;69.62;98748.41;4242384;28;33533;-89
2020/12/04 02:29:51;;;;;;;31.77;18.75;;;;;;;3.85;70.11;98757.09;4268984;28;33996;-88
2020/12/04 02:32:24;;;;;;;27.55;17.10;;;;;;;4.02;69.81;98757.09;4271351;28;34505;-90
2020/12/04 02:35:39;;;;;;;31.17;17.37;;;;;;;4.03;69.53;98746.22;4353991;28;20092;-95
2020/12/04 02:38:38;;;;;;;31.65;18.25;;;;;;;4.00;69.42;98746.56;4357955;28;20170;-93
2020/12/04 02:41:10;;;;;;;31.90;17.25;;;;;;;3.52;71.62;98753.59;4455714;28;133310;-90
2020/12/04 02:44:28;;;;;;;29.30;16.77;;;;;;;4.04;69.30;98750.56;4356788;28;33303;-90
2020/12/04 02:47:22;;;;;;;31.52;16.55;;;;;;;4.28;68.56;98756.03;4293925;28;33131;-92
2020/12/04 02:49:55;;;;;;;29.70;17.05;;;;;;;4.36;67.78;98762.19;4225479;28;33607;-92
2020/12/04 02:56:01;;;;;;;30.15;17.48;;;;;;;3.71;70.55;98766.63;4322460;28;34738;-96
2020/12/04 02:58:37;;;;;;;29.60;16.95;;;;;;;3.67;70.55;98761.78;4223975;28;34470;-95
2020/12/04 03:01:36;;;;;;;31.27;16.75;;;;;;;3.69;70.32;98754.44;4343723;28;20074;-89
2020/12/04 03:04:36;;;;;;;31.48;17.90;;;;;;;3.55;70.95;98731.91;4264594;28;33312;-88
2020/12/04 03:07:43;;;;;;;26.80;16.45;;;;;;;3.74;70.26;98735.22;4220962;28;34423;-89
2020/12/04 03:10:16;;;;;;;29.40;17.05;;;;;;;3.67;70.54;98724.38;4207229;33;34197;-89
2020/12/04 03:12:49;;;;;;;29.25;16.98;;;;;;;3.93;69.45;98721.50;4397566;28;34166;-89
2020/12/04 03:15:21;;;;;;;31.05;19.25;;;;;;;4.07;68.72;98731.50;4431544;28;33202;-93
2020/12/04 03:18:12;;;;;;;32.70;18.23;;;;;;;3.79;69.60;98754.28;4288911;28;34269;31
2020/12/04 03:20:46;;;;;;;;;;;;;;;3.89;69.47;98745.06;4232600;28;34351;-96
2020/12/04 03:23:21;;;;;;;29.15;16.08;;;;;;;3.85;69.52;98748.25;4341907;28;34647;-91
2020/12/04 03:26:39;;;;;;;28.12;17.52;;;;;;;3.56;70.37;98757.59;4331439;28;35653;-90
2020/12/04 03:29:19;;;;;;;26.30;15.48;;;;;;;3.85;69.80;98733.03;4246191;28;33523;-88
2020/12/04 03:31:53;;;;;;;33.20;18.67;;;;;;;3.77;70.03;98722.34;4429212;28;33831;-90
2020/12/04 03:34:59;;;;;;;28.77;17.50;;;;;;;4.30;68.59;98729.97;4276002;28;31843;31
2020/12/04 03:37:33;;;;;;;31.37;17.62;;;;;;;4.19;68.37;98740.00;4203620;28;34914;-90
2020/12/04 03:40:29;;;;;;;30.95;17.70;;;;;;;4.26;68.88;98733.97;4373783;28;33855;-90
2020/12/04 03:43:25;;;;;;;31.52;17.35;;;;;;;4.18;69.18;98726.81;4236768;28;33834;-95
2020/12/04 03:45:58;;;;;;;29.50;16.50;;;;;;;3.91;69.71;98731.53;4390180;28;34008;-88
2020/12/04 03:48:41;;;;;;;36.63;20.62;;;;;;;4.29;68.93;98722.94;4373642;28;33048;31
2020/12/04 03:51:14;;;;;;;91.28;42.22;;;;;;;4.22;69.07;98723.62;4225672;28;32430;-89
2020/12/04 03:53:47;;;;;;;81.68;39.47;;;;;;;3.74;70.31;98711.16;4219817;28;33739;-93
2020/12/04 03:56:19;;;;;;;50.47;26.50;;;;;;;3.93;69.16;98729.53;4208253;33;33744;-90
2020/12/04 03:58:56;;;;;;;32.67;18.27;;;;;;;4.70;67.48;98725.44;4267064;28;33357;-90
2020/12/04 04:01:34;;;;;;;30.10;17.35;;;;;;;4.70;67.38;98720.94;4284578;28;35324;-96
2020/12/04 04:04:25;;;;;;;28.45;15.15;;;;;;;4.74;67.40;98726.75;4177445;34;32979;-90
2020/12/04 04:07:00;;;;;;;27.35;16.10;;;;;;;4.52;67.87;98723.88;4190619;28;33941;-93
2020/12/04 04:10:11;;;;;;;26.15;16.25;;;;;;;4.06;69.43;98737.03;4556263;28;20092;-89
2020/12/04 04:12:54;;;;;;;28.05;17.10;;;;;;;4.53;68.00;98735.37;4261242;28;34443;31
2020/12/04 04:15:28;;;;;;;27.33;16.37;;;;;;;4.39;68.61;98739.62;4285144;28;32175;-96
2020/12/04 04:18:04;;;;;;;25.88;15.90;;;;;;;4.00;69.93;98743.87;4218213;28;33062;-92
2020/12/04 04:21:00;;;;;;;29.77;17.23;;;;;;;4.18;69.11;98737.50;4305759;28;34317;-95
2020/12/04 04:23:55;;;;;;;32.15;16.37;;;;;;;4.28;68.97;98732.81;4282327;28;33530;-92
2020/12/04 04:26:57;;;;;;;28.67;16.77;;;;;;;4.40;68.51;98731.44;4226855;28;33763;31
2020/12/04 04:29:48;;;;;;;32.25;17.37;;;;;;;4.36;68.80;98727.41;4204841;34;34092;-92
2020/12/04 04:32:22;;;;;;;30.10;17.05;;;;;;;3.91;70.30;98710.16;4248941;28;33121;-95
2020/12/04 04:34:54;;;;;;;30.77;17.55;;;;;;;4.01;70.17;98713.47;4273058;28;35335;-89
2020/12/04 04:37:49;;;;;;;28.70;17.45;;;;;;;4.51;68.57;98726.72;4210257;28;34754;-89
2020/12/04 04:40:21;;;;;;;26.48;15.85;;;;;;;4.60;68.26;98736.37;4196595;34;34689;-91
2020/12/04 04:43:16;;;;;;;30.30;17.00;;;;;;;4.40;68.47;98739.44;4186089;34;33330;-95
2020/12/04 04:45:50;;;;;;;29.25;16.73;;;;;;;4.49;68.39;98742.94;4311520;28;34923;-90
2020/12/04 04:48:31;;;;;;;32.53;18.00;;;;;;;4.48;68.26;98745.78;4283164;28;34934;31
2020/12/04 04:51:24;;;;;;;31.00;18.48;;;;;;;4.84;67.40;98740.78;4317734;28;33255;-89
2020/12/04 04:53:58;;;;;;;30.23;17.50;;;;;;;4.99;66.93;98740.88;4232190;33;32542;-91
2020/12/04 04:56:59;;;;;;;32.53;17.87;;;;;;;4.67;67.71;98731.13;4277993;28;35252;-95
2020/12/04 04:59:32;;;;;;;29.30;19.12;;;;;;;4.38;68.09;98733.41;4210705;33;34479;-96
2020/12/04 05:02:05;;;;;;;29.15;18.70;;;;;;;4.64;67.81;98726.13;4187976;34;32436;-91
2020/12/04 05:04:48;;;;;;;30.40;17.10;;;;;;;4.66;67.35;98735.69;4211768;33;35080;-92
2020/12/04 05:07:34;;;;;;;33.30;19.58;;;;;;;4.80;67.13;98730.59;4220603;28;32911;-90
2020/12/04 05:10:10;;;;;;;30.20;18.62;;;;;;;4.38;68.41;98746.78;4184562;34;33892;-96
2020/12/04 05:12:45;;;;;;;29.30;17.23;;;;;;;4.49;68.27;98745.63;4209924;28;33121;-92
2020/12/04 05:15:28;;;;;;;26.62;16.05;;;;;;;4.78;67.42;98728.91;4183675;34;34104;-96
2020/12/04 05:18:05;;;;;;;30.35;17.67;;;;;;;4.64;67.67;98726.13;4207818;34;32854;-90
2020/12/04 05:20:40;;;;;;;26.65;16.83;;;;;;;4.56;67.80;98724.34;4196129;34;33582;-88
2020/12/04 05:23:23;;;;;;;38.13;20.10;;;;;;;4.94;66.83;98727.19;4179653;34;34771;-95
2020/12/04 05:29:38;;;;;;;32.22;18.45;;;;;;;4.70;67.51;98761.09;4440017;28;34045;-92
2020/12/04 05:35:23;;;;;;;27.58;16.55;;;;;;;3.83;70.58;98763.63;4260434;28;34071;-96
2020/12/04 05:38:12;;;;;;;32.15;19.80;;;;;;;4.23;69.21;98769.91;4360575;28;32039;-92
2020/12/04 05:40:48;;;;;;;35.78;17.90;;;;;;;4.62;68.22;98766.47;4251682;28;31117;-95
2020/12/04 05:43:42;;;;;;;30.37;17.85;;;;;;;4.10;69.06;98761.59;4200402;28;34824;31
2020/12/04 05:46:29;;;;;;;30.85;17.05;;;;;;;4.56;68.25;98757.28;4306581;28;33439;-96
2020/12/04 05:50:06;;;;;;;31.17;18.23;;;;;;;4.40;68.22;98760.00;4266486;28;21022;-96
2020/12/04 05:52:38;;;;;;;28.92;17.60;;;;;;;4.34;68.68;98766.91;4320031;28;35513;-94
2020/12/04 05:55:13;;;;;;;31.20;18.37;;;;;;;4.34;68.27;98764.22;4245729;28;34176;-92
2020/12/04 05:57:47;;;;;;;26.02;16.62;;;;;;;4.84;67.28;98759.50;4250061;28;34597;-96
2020/12/04 06:00:54;;;;;;;31.25;18.50;;;;;;;4.51;68.16;98762.31;4212515;33;32650;-92
2020/12/04 06:03:31;;;;;;;30.15;17.70;;;;;;;4.04;69.88;98750.56;4209562;34;34399;-96
2020/12/04 06:06:26;;;;;;;37.20;19.35;;;;;;;3.80;70.62;98762.12;4209627;28;35000;-94
2020/12/04 06:09:34;;;;;;;28.58;17.42;;;;;;;3.98;70.15;98747.72;4208486;28;20198;-95
2020/12/04 06:12:21;;;;;;;31.12;19.20;;;;;;;4.36;68.63;98762.19;4155633;34;32762;-95
2020/12/04 06:15:23;;;;;;;30.67;18.90;;;;;;;4.37;68.90;98771.91;4162120;34;33862;-92
2020/12/04 06:18:13;;;;;;;31.02;18.45;;;;;;;4.62;68.12;98766.47;4164364;34;33783;-93
2020/12/04 06:20:58;;;;;;;31.87;17.02;;;;;;;4.65;67.71;98766.13;4181381;34;31945;-93
2020/12/04 06:24:06;;;;;;;30.73;19.45;;;;;;;4.71;67.66;98770.78;4171037;34;34224;-96
2020/12/04 06:30:10;;;;;;;30.67;17.30;;;;;;;4.27;69.74;98779.28;4146397;34;34100;-96
2020/12/04 06:32:53;;;;;;;29.95;18.77;;;;;;;3.99;70.59;98793.00;4182900;28;33372;-94
2020/12/04 06:35:43;;;;;;;31.15;18.25;;;;;;;4.47;69.00;98786.94;4210242;34;33410;-91
2020/12/04 06:38:38;;;;;;;33.22;18.95;;;;;;;4.70;68.54;98785.19;4196051;34;34543;-96
2020/12/04 06:41:20;;;;;;;27.98;17.27;;;;;;;4.81;68.00;98778.59;4194534;34;32849;-96
2020/12/04 06:43:57;;;;;;;31.83;18.80;;;;;;;4.64;67.97;98783.19;4206825;34;34706;-96
2020/12/04 06:47:12;;;;;;;32.17;17.87;;;;;;;4.91;67.83;98778.38;4194191;28;20118;-94
2020/12/04 06:49:45;;;;;;;38.38;18.30;;;;;;;4.75;68.36;98779.31;4253688;28;35046;-94
2020/12/04 06:52:32;;;;;;;30.95;19.00;;;;;;;4.91;67.83;98789.09;4154239;34;33746;-95
2020/12/04 06:56:03;;;;;;;37.87;23.37;;;;;;;4.40;69.07;98795.63;4266694;28;20824;-96
2020/12/04 06:58:59;;;;;;;32.13;20.23;;;;;;;4.25;69.86;98802.66;4135206;34;31882;-95
2020/12/04 07:01:39;;;;;;;34.17;19.35;;;;;;;4.52;69.21;98797.94;4158693;34;34779;-93
2020/12/04 07:05:10;;;;;;;37.28;20.20;;;;;;;4.80;68.69;98800.19;4180336;34;20115;-93
2020/12/04 07:12:04;;;;;;;32.20;18.70;;;;;;;4.84;67.84;98780.13;4151093;34;32667;-94
2020/12/04 07:15:22;;;;;;;30.10;16.62;;;;;;;4.66;68.87;98788.38;4185889;29;20167;-95
2020/12/04 07:18:01;;;;;;;35.00;21.40;;;;;;;4.61;69.03;98786.22;4101577;34;33575;-92
2020/12/04 07:24:59;;;;;;;31.35;18.05;;;;;;;4.12;70.66;98807.72;4463910;28;32552;31
2020/12/04 07:27:45;;;;;;;35.90;19.55;;;;;;;4.47;69.42;98811.00;4155945;28;34077;-95
2020/12/04 07:30:58;;;;;;;;;;;;;;;4.72;69.16;98814.47;4218575;29;20149;-96
2020/12/04 07:34:04;;;;;;;28.08;17.80;;;;;;;4.84;68.59;98817.59;4143305;34;33147;-94
2020/12/04 07:37:03;;;;;;;32.45;18.25;;;;;;;5.22;67.49;98812.41;4504012;28;20082;-93
2020/12/04 07:39:47;;;;;;;32.50;18.67;;;;;;;5.19;67.67;98821.59;4168044;34;35030;-93
2020/12/04 07:42:55;;;;;;;31.33;18.10;;;;;;;5.37;66.88;98818.66;4151795;34;34111;-93
2020/12/04 07:45:28;;;;;;;30.17;16.90;;;;;;;5.19;67.48;98832.31;4150091;34;33640;-96
2020/12/04 07:48:25;;;;;;;31.08;17.02;;;;;;;5.07;67.70;98813.13;4158419;34;33307;-95
2020/12/04 07:51:03;;;;;;;33.83;17.98;;;;;;;5.38;67.09;98824.88;4169516;34;34053;-96
2020/12/04 07:53:57;;;;;;;26.37;17.40;;;;;;;5.40;67.24;98826.34;4159532;34;34069;-95
2020/12/04 07:57:08;;;;;;;35.45;17.70;;;;;;;5.43;66.79;98830.53;4174776;34;32890;-96
2020/12/04 07:59:41;;;;;;;30.20;17.00;;;;;;;5.54;66.62;98826.59;4191925;34;33303;-91
2020/12/04 08:02:32;;;;;;;32.25;17.77;;;;;;;5.64;66.04;98828.06;4170664;34;34696;-90
2020/12/04 08:08:32;;;;;;;30.88;16.02;;;;;;;5.28;67.45;98830.44;4173411;34;34597;-91
2020/12/04 08:11:22;;;;;;;27.13;16.48;;;;;;;5.39;67.04;98811.31;4175180;34;34308;-96
2020/12/04 08:14:21;;;;;;;26.08;15.57;;;;;;;5.39;67.42;98824.69;4298291;28;33759;-96
2020/12/04 08:17:07;;;;;;;28.30;16.48;;;;;;;5.16;68.41;98821.97;4290449;28;32805;-94
2020/12/04 08:19:51;;;;;;;27.48;15.50;;;;;;;5.56;66.76;98819.25;4389541;28;34485;-96
2020/12/04 08:22:51;;;;;;;27.48;16.90;;;;;;;5.62;66.60;98800.59;4183569;34;31296;-96
2020/12/04 08:25:45;;;;;;;26.40;14.90;;;;;;;5.26;68.07;98813.72;4165424;34;33201;-96
2020/12/04 08:28:18;;;;;;;26.27;16.80;;;;;;;5.52;66.97;98809.88;4178627;34;34299;-94
2020/12/04 08:31:48;;;;;;;26.48;15.45;;;;;;;5.62;67.45;98805.13;4188034;33;20112;-96
2020/12/04 08:38:51;;;;;;;25.25;14.93;;;;;;;5.64;67.32;98803.94;2189775;28;20802;-92
2020/12/04 08:42:19;;;;;;;31.37;17.25;;;;;;;5.54;67.24;98818.56;4377569;28;20165;-96
2020/12/04 08:45:08;;;;;;;30.48;15.57;;;;;;;5.35;68.04;98815.34;4198298;34;33872;-93
2020/12/04 08:48:08;;;;;;;25.50;15.38;;;;;;;5.38;67.99;98816.84;4331423;28;34931;-96
2020/12/04 08:51:23;;;;;;;26.65;16.02;;;;;;;5.94;66.42;98830.00;4188992;34;34090;-96
2020/12/04 08:54:09;;;;;;;30.60;15.93;;;;;;;6.10;66.23;98824.56;4218015;28;33747;-95
2020/12/04 08:57:06;;;;;;;26.15;15.75;;;;;;;5.91;66.07;98825.00;4287003;28;33560;-94
2020/12/04 08:59:42;;;;;;;27.37;16.12;;;;;;;5.80;66.54;98829.78;4199188;28;34071;-95
2020/12/04 09:06:06;;;;;;;28.83;15.98;;;;;;;6.07;66.98;98834.81;4264732;28;20038;-91
2020/12/04 09:08:39;;;;;;;28.00;16.25;;;;;;;5.47;68.33;98830.00;4205805;28;33420;-95
2020/12/04 09:11:16;;;;;;;26.10;16.52;;;;;;;5.79;67.44;98830.81;4226886;28;33958;-94
2020/12/04 09:14:22;;;;;;;28.75;15.57;;;;;;;5.47;68.76;98835.34;4390244;28;34411;31
2020/12/04 09:20:29;;;;;;;31.85;17.67;;;;;;;5.80;67.95;98837.00;4214414;32;20179;-96
2020/12/04 09:23:03;;;;;;;27.40;15.48;;;;;;;5.46;69.24;98833.72;4192399;33;32726;-93
2020/12/04 09:25:36;;;;;;;30.90;17.48;;;;;;;5.66;68.70;98830.56;4200674;34;32297;-96
2020/12/04 09:28:17;;;;;;;27.48;15.65;;;;;;;5.59;69.69;98832.28;4207324;34;33728;-96
2020/12/04 09:31:15;;;;;;;27.60;16.77;;;;;;;5.64;69.63;98824.53;4213471;33;20162;-93
2020/12/04 09:34:04;;;;;;;25.52;14.70;;;;;;;5.92;68.89;98814.09;4210417;33;32967;-96
2020/12/04 09:36:43;;;;;;;22.05;13.55;;;;;;;5.77;68.98;98818.59;4220541;33;34180;-96
2020/12/04 09:39:43;;;;;;;26.07;15.23;;;;;;;5.87;68.11;98815.66;4212205;33;34386;-96
2020/12/04 09:42:30;;;;;;;25.10;14.68;;;;;;;6.29;68.04;98808.97;4212686;28;35444;-92
2020/12/04 09:45:15;;;;;;;28.38;16.30;;;;;;;6.21;67.39;98811.72;4193711;34;33814;-95
2020/12/04 09:48:07;;;;;;;23.33;14.15;;;;;;;6.79;66.45;98822.69;4188664;34;32350;-91
2020/12/04 09:50:43;;;;;;;25.20;15.25;;;;;;;6.46;66.35;98817.69;4274053;28;34659;31
2020/12/04 09:53:26;;;;;;;27.35;13.98;;;;;;;7.05;64.79;98806.94;4183466;34;33012;-94
2020/12/04 09:57:00;;;;;;;23.33;13.25;;;;;;;6.69;66.00;98804.16;1963380;28;21590;-96
2020/12/04 10:00:13;;;;;;;23.65;14.82;;;;;;;7.01;65.39;98789.53;4169955;34;32905;-96
2020/12/04 10:03:16;;;;;;;24.58;14.32;;;;;;;6.66;66.34;98791.13;4141745;34;34553;-96
2020/12/04 10:05:48;;;;;;;22.52;14.52;;;;;;;6.48;65.95;98789.66;4130352;34;32572;-92
2020/12/04 10:08:36;;;;;;;26.50;14.52;;;;;;;6.40;66.53;98792.41;4140903;29;32658;31
2020/12/04 10:11:18;;;;;;;22.62;13.32;;;;;;;7.02;65.76;98782.28;4119717;34;35247;-90
2020/12/04 10:14:30;;;;;;;28.45;14.60;;;;;;;6.49;66.79;98796.66;4375327;28;34490;31
2020/12/04 10:17:43;;;;;;;21.85;13.43;;;;;;;7.08;65.16;98773.50;4149977;29;32368;-96
2020/12/04 10:20:45;;;;;;;24.08;13.62;;;;;;;6.71;66.47;98772.63;4156906;28;33469;-96
2020/12/04 10:23:46;;;;;;;24.42;14.10;;;;;;;7.07;65.72;98769.97;4153147;34;32808;-91
2020/12/04 10:26:21;;;;;;;24.77;14.73;;;;;;;7.02;65.04;98768.84;4162386;34;33789;-96
2020/12/04 10:29:02;;;;;;;22.92;13.95;;;;;;;7.18;65.27;98771.31;4151801;34;33383;-95
2020/12/04 10:32:05;;;;;;;23.40;14.52;;;;;;;7.16;64.99;98762.62;4195892;34;33388;-93
2020/12/04 10:34:42;;;;;;;25.35;13.90;;;;;;;7.39;64.35;98748.19;4194480;34;35052;-93
2020/12/04 10:37:36;;;;;;;24.63;13.52;;;;;;;6.89;65.35;98743.50;4186864;34;34506;-96
2020/12/04 10:40:09;;;;;;;24.75;15.13;;;;;;;7.79;63.82;98743.19;4197346;34;33929;-93
2020/12/04 10:43:28;;;;;;;;;;;;;;;7.41;64.43;98746.16;4300916;28;33462;31
2020/12/04 10:46:12;;;;;;;21.12;13.77;;;;;;;7.65;64.05;98741.41;4185981;34;32366;-93
2020/12/04 10:48:45;;;;;;;27.00;13.77;;;;;;;6.93;65.86;98748.50;4178537;34;35178;-93
2020/12/04 10:51:39;;;;;;;20.98;13.18;;;;;;;6.90;65.79;98738.94;4178227;34;34392;-94
2020/12/04 10:54:33;;;;;;;24.05;13.85;;;;;;;7.37;64.58;98728.72;4179091;34;33938;-96
2020/12/04 10:57:21;;;;;;;22.55;13.35;;;;;;;6.98;65.62;98735.34;4166419;34;32908;-94
2020/12/04 11:00:04;;;;;;;23.80;14.07;;;;;;;7.10;64.99;98743.75;4226459;28;34788;-95
2020/12/04 11:03:21;;;;;;;22.50;13.95;;;;;;;7.16;65.26;98743.81;4209158;28;33232;-93
2020/12/04 11:06:09;;;;;;;22.45;12.80;;;;;;;6.91;65.82;98755.91;4169421;34;31564;-95
2020/12/04 11:09:03;;;;;;;18.65;12.20;;;;;;;7.10;65.42;98746.44;4190606;34;34172;-96
2020/12/04 11:12:03;;;;;;;20.12;11.90;;;;;;;7.65;64.61;98747.62;4279408;28;34578;-96
2020/12/04 11:14:45;;;;;;;19.37;11.88;;;;;;;7.92;63.67;98745.16;4183348;28;34708;-94
2020/12/04 11:17:47;;;;;;;19.40;11.98;;;;;;;7.99;62.63;98747.91;4200338;34;33947;-93
2020/12/04 11:20:29;;;;;;;22.77;11.73;;;;;;;7.71;64.12;98748.69;4213822;33;35171;-95
2020/12/04 11:23:29;;;;;;;19.30;11.60;;;;;;;7.12;65.90;98742.53;4178001;34;34489;-94
2020/12/04 11:29:21;;;;;;;15.80;10.68;;;;;;;8.15;63.57;98736.03;4191752;33;33524;-92
2020/12/04 11:32:02;;;;;;;19.77;11.70;;;;;;;7.85;63.60;98733.50;4165972;34;32624;-95
2020/12/04 11:34:55;;;;;;;17.83;10.18;;;;;;;7.83;64.21;98749.84;4190980;34;33106;-92
2020/12/04 11:37:28;;;;;;;17.33;10.60;;;;;;;7.71;63.46;98740.62;4198785;34;35082;-95
2020/12/04 11:40:01;;;;;;;17.95;11.82;;;;;;;7.98;62.98;98740.84;4196041;34;33266;-94
2020/12/04 11:42:38;;;;;;;16.25;10.60;;;;;;;8.22;62.38;98748.50;4203042;34;35168;-90
2020/12/04 11:45:13;;;;;;;18.33;10.98;;;;;;;7.83;62.88;98749.00;4192221;34;34442;-91
2020/12/04 11:47:46;;;;;;;16.15;9.95;;;;;;;8.05;62.66;98753.31;4197523;34;34457;-91
2020/12/04 11:50:18;;;;;;;16.55;9.63;;;;;;;8.06;61.93;98736.16;4181238;34;34218;-89
2020/12/04 11:52:51;;;;;;;18.17;10.70;;;;;;;8.41;60.99;98736.19;4198673;34;34470;-91
2020/12/04 11:55:23;;;;;;;15.18;9.30;;;;;;;7.90;62.22;98745.38;4191504;34;34337;-91
2020/12/04 11:57:56;;;;;;;16.27;10.43;;;;;;;7.37;63.80;98747.56;4192379;34;32431;-92
2020/12/04 12:00:29;;;;;;;18.05;11.52;;;;;;;7.58;63.01;98742.16;4207723;34;33909;-91
2020/12/04 12:03:01;;;;;;;16.55;10.57;;;;;;;7.38;64.60;98746.50;4206995;34;34055;-91
2020/12/04 12:05:36;;;;;;;16.67;9.85;;;;;;;7.77;62.93;98747.94;4182959;34;34202;-92
2020/12/04 12:08:21;;;;;;;18.27;10.23;;;;;;;8.20;62.10;98761.31;4162994;34;34707;-91
2020/12/04 12:10:55;;;;;;;18.90;9.98;;;;;;;8.47;62.10;98761.50;4188713;34;32169;-92
2020/12/04 12:13:34;;;;;;;14.68;9.30;;;;;;;8.37;62.84;98763.69;4175554;34;36606;-95
2020/12/04 12:16:07;;;;;;;17.75;10.52;;;;;;;8.60;61.45;98756.22;4165635;34;33623;-93
2020/12/04 12:18:40;;;;;;;14.75;9.65;;;;;;;8.96;61.49;98757.84;4167178;34;34307;-94
2020/12/04 12:21:13;;;;;;;18.05;10.38;;;;;;;8.31;62.85;98763.47;4191459;34;33477;-90
2020/12/04 12:24:02;;;;;;;17.50;10.68;;;;;;;8.54;62.38;98756.19;4172649;34;34300;-94
2020/12/04 12:26:35;;;;;;;17.67;10.85;;;;;;;8.41;63.32;98754.19;4176728;34;33609;-96
2020/12/04 12:29:15;;;;;;;16.02;9.63;;;;;;;8.00;64.66;98752.28;4165401;34;33803;-95
2020/12/04 12:31:50;;;;;;;20.40;11.25;;;;;;;7.54;66.52;98753.50;4149456;34;32599;-92
2020/12/04 12:37:18;;;;;;;18.87;10.40;;;;;;;7.70;66.12;98755.12;4178160;34;32970;-92
2020/12/04 12:40:15;;;;;;;22.77;11.20;;;;;;;8.04;65.88;98748.97;4184956;34;34192;-96
2020/12/04 12:42:53;;;;;;;19.00;11.35;;;;;;;8.31;64.62;98750.00;4177091;34;32055;-96
2020/12/04 12:45:54;;;;;;;18.62;10.73;;;;;;;7.82;66.44;98756.25;4201373;34;35381;-96
2020/12/04 12:48:41;;;;;;;18.87;10.60;;;;;;;8.46;64.57;98751.78;4201379;34;33763;-94
2020/12/04 12:51:16;;;;;;;17.12;10.23;;;;;;;8.51;64.79;98746.62;4218220;33;34749;-91
2020/12/04 12:53:48;;;;;;;18.87;11.52;;;;;;;8.27;65.29;98743.34;4202806;34;33648;-90
2020/12/04 12:56:21;;;;;;;17.30;10.85;;;;;;;8.11;65.51;98738.25;4203187;34;34125;-92
2020/12/04 12:58:54;;;;;;;18.52;11.43;;;;;;;8.27;64.99;98746.03;4214037;33;34016;-95
2020/12/04 13:01:59;;;;;;;20.92;12.23;;;;;;;8.47;65.24;98745.34;4194625;34;33476;-96
2020/12/04 13:04:33;;;;;;;21.83;12.80;;;;;;;8.56;65.00;98744.19;4192948;34;34144;-93
2020/12/04 13:07:29;;;;;;;20.98;11.70;;;;;;;8.54;65.04;98746.22;4182932;34;35135;-94
2020/12/04 13:10:06;;;;;;;18.25;10.85;;;;;;;7.94;67.11;98749.31;4196007;34;33395;-94
2020/12/04 13:12:55;;;;;;;17.42;10.80;;;;;;;8.13;66.62;98757.75;4202253;34;32946;-93
2020/12/04 13:15:28;;;;;;;19.17;10.27;;;;;;;7.88;67.70;98758.16;4283996;28;35069;-96
2020/12/04 13:18:26;;;;;;;18.05;10.45;;;;;;;8.30;67.05;98752.91;4191717;34;34639;-95
2020/12/04 13:20:59;;;;;;;20.25;11.10;;;;;;;7.51;68.39;98752.03;4317607;28;35067;-95
2020/12/04 13:23:50;;;;;;;17.48;10.63;;;;;;;7.62;68.93;98760.59;4264404;28;34173;-96
2020/12/04 13:26:38;;;;;;;16.67;10.45;;;;;;;7.90;68.01;98766.87;4384120;28;32724;-95
2020/12/04 13:30:15;;;;;;;16.07;10.23;;;;;;;7.92;67.63;98764.81;4298953;28;32579;-96
2020/12/04 13:34:01;;;;;;;17.98;10.30;;;;;;;7.87;68.81;98772.63;3094041;28;20395;-93
2020/12/04 13:37:00;;;;;;;44.63;13.85;;;;;;;8.42;67.18;98769.34;4183042;34;20172;-89
2020/12/04 13:39:33;;;;;;;20.77;10.68;;;;;;;8.29;67.16;98762.84;4177339;34;34296;-96
2020/12/04 13:42:21;;;;;;;16.02;9.57;;;;;;;8.01;67.92;98768.22;4175678;34;32879;-94
2020/12/04 13:44:53;;;;;;;14.32;9.02;;;;;;;7.86;68.47;98776.38;4173103;34;33779;-94
2020/12/04 13:47:49;;;;;;;18.40;9.77;;;;;;;7.69;68.63;98774.97;4185821;34;36143;-91